Time;durP1;ratioP1;P1;durP2;ratioP2;P2;SDS_P1;SDS_P2;PMS_P1;PMS_P2;Temp;Humidity;BMP_temperature;BMP_pressure;BME280_temperature;BME280_humidity;BME280_pressure;Samples;Min_cycle;Max_cycle;Signal;HPM_P1;HPM_P2
2022/05/26 00:00:00;;;;;;;2.63;2.42;;;16.60;89.80;;;;;;5051216;28;20316;-69
2022/05/26 00:02:25;;;;;;;2.22;1.45;;;16.70;89.00;;;;;;5050617;28;20637;-70
2022/05/26 00:04:51;;;;;;;33.05;17.27;;;16.70;89.60;;;;;;5050631;28;20259;-69
2022/05/26 00:07:17;;;;;;;2.85;2.40;;;16.70;89.40;;;;;;5051305;28;20166;-69
2022/05/26 00:09:43;;;;;;;4.95;3.33;;;16.70;88.70;;;;;;5051106;28;20204;-70
2022/05/26 00:12:12;;;;;;;11.02;6.95;;;16.60;89.60;;;;;;5050933;28;20169;-71
2022/05/26 00:14:39;;;;;;;7.00;4.97;;;16.60;90.00;;;;;;5050823;28;20181;-70
2022/05/26 00:17:05;;;;;;;2.03;1.63;;;16.60;90.30;;;;;;5050820;28;20629;-70
2022/05/26 00:19:32;;;;;;;2.03;1.13;;;16.60;90.00;;;;;;5050944;28;20197;-70
2022/05/26 00:21:57;;;;;;;0.50;0.50;;;16.60;89.40;;;;;;5050720;28;20181;-68
2022/05/26 00:24:23;;;;;;;1.00;0.73;;;16.50;89.20;;;;;;5050410;28;20213;-70
2022/05/26 00:26:48;;;;;;;0.95;0.60;;;16.50;89.40;;;;;;5050614;28;20176;-69
2022/05/26 00:29:14;;;;;;;0.65;0.47;;;16.40;89.60;;;;;;5052795;28;20182;-70
2022/05/26 00:31:40;;;;;;;1.02;0.70;;;16.40;90.10;;;;;;5054584;28;20185;-70
2022/05/26 00:34:06;;;;;;;0.50;0.50;;;16.30;90.10;;;;;;5054080;28;20594;-70
2022/05/26 00:36:37;;;;;;;2.92;0.60;;;16.30;90.60;;;;;;5054272;28;20197;-70
2022/05/26 00:39:22;;;;;;;1.95;0.90;;;16.30;90.40;;;;;;5053348;28;20185;-70
2022/05/26 00:42:00;;;;;;;1.20;0.70;;;16.30;90.70;;;;;;5054141;28;20173;-70
2022/05/26 00:44:27;;;;;;;1.75;0.80;;;16.30;90.90;;;;;;5053830;28;20216;-70
2022/05/26 00:47:11;;;;;;;0.95;0.80;;;16.30;91.20;;;;;;5054313;28;20256;-70
2022/05/26 00:49:39;;;;;;;0.47;0.47;;;16.30;91.50;;;;;;5053688;28;20177;-69
2022/05/26 00:52:08;;;;;;;0.60;0.60;;;16.30;91.70;;;;;;5053754;28;20182;-69
2022/05/26 00:54:34;;;;;;;1.42;0.50;;;16.30;92.00;;;;;;5053908;28;20185;-69
2022/05/26 00:57:08;;;;;;;0.75;0.52;;;16.20;92.10;;;;;;5053311;28;20629;-69
2022/05/26 00:59:46;;;;;;;3.03;0.73;;;16.20;92.40;;;;;;5053999;28;20264;-69
2022/05/26 01:02:13;;;;;;;0.52;0.50;;;16.20;92.50;;;;;;5053580;28;20180;-69
2022/05/26 01:04:54;;;;;;;1.10;0.70;;;16.10;92.60;;;;;;5053472;28;20219;-68
2022/05/26 01:07:25;;;;;;;0.98;0.63;;;16.10;93.00;;;;;;5053615;28;20189;-68
2022/05/26 01:09:51;;;;;;;0.40;0.40;;;16.00;93.10;;;;;;5053842;28;20177;-68
2022/05/26 01:12:16;;;;;;;1.02;0.57;;;16.00;93.40;;;;;;5053629;28;20567;-69
2022/05/26 01:14:51;;;;;;;1.83;0.70;;;16.00;93.60;;;;;;5053537;28;20250;-68
2022/05/26 01:17:44;;;;;;;1.38;0.60;;;16.00;93.60;;;;;;5053337;28;20671;-68
2022/05/26 01:20:33;;;;;;;1.45;0.55;;;15.90;93.80;;;;;;5046173;28;20188;-68
2022/05/26 01:23:07;;;;;;;0.65;0.50;;;15.90;93.80;;;;;;5052782;28;20184;-68
2022/05/26 01:25:44;;;;;;;2.08;0.73;;;15.90;93.90;;;;;;5053216;28;20200;-68
2022/05/26 01:28:32;;;;;;;0.63;0.47;;;15.90;94.10;;;;;;5053248;28;20212;-67
2022/05/26 01:31:19;;;;;;;0.30;0.30;;;15.90;94.10;;;;;;5052966;28;20347;-67
2022/05/26 01:34:03;;;;;;;0.38;0.38;;;15.90;94.30;;;;;;5051351;28;20271;-68
2022/05/26 01:36:41;;;;;;;0.65;0.60;;;15.90;94.50;;;;;;5052881;28;20178;-68
2022/05/26 01:39:47;;;;;;;1.30;0.65;;;15.90;94.50;;;;;;5051547;28;20226;-69
2022/05/26 01:42:34;;;;;;;0.93;0.43;;;15.90;94.90;;;;;;5052402;28;20193;-68
2022/05/26 01:45:27;;;;;;;1.17;0.45;;;15.90;94.70;;;;;;5052537;28;20235;-68
2022/05/26 01:48:07;;;;;;;0.45;0.45;;;15.90;94.80;;;;;;5052703;28;20692;-68
2022/05/26 01:51:01;;;;;;;0.40;0.40;;;15.90;95.00;;;;;;5053440;28;20603;-68
2022/05/26 01:54:05;;;;;;;2.10;0.68;;;15.80;95.00;;;;;;5052683;28;20181;-68
2022/05/26 01:56:38;;;;;;;1.92;0.47;;;15.80;95.20;;;;;;5050927;28;20543;-68
2022/05/26 01:59:09;;;;;;;0.43;0.40;;;15.80;95.30;;;;;;5049226;28;20212;-67
2022/05/26 02:01:38;;;;;;;1.17;0.80;;;15.80;95.40;;;;;;5052407;28;20178;-67
2022/05/26 02:04:16;;;;;;;2.90;0.70;;;15.80;95.50;;;;;;5052255;28;20206;-68
2022/05/26 02:06:49;;;;;;;1.13;0.70;;;15.80;95.60;;;;;;5051933;28;20639;-67
2022/05/26 02:09:29;;;;;;;0.43;0.43;;;15.90;95.60;;;;;;5052341;28;20173;-68
2022/05/26 02:12:15;;;;;;;1.27;0.60;;;15.90;95.80;;;;;;5052032;28;20212;-67
2022/05/26 02:14:45;;;;;;;1.98;0.60;;;15.90;96.00;;;;;;5052150;28;20189;-68
2022/05/26 02:17:22;;;;;;;1.48;0.47;;;15.80;95.90;;;;;;5052311;28;20217;-67
2022/05/26 02:20:05;;;;;;;0.77;0.63;;;15.80;96.00;;;;;;5052214;28;20201;-68
2022/05/26 02:22:42;;;;;;;0.70;0.50;;;15.80;96.20;;;;;;5051240;28;20632;-68
2022/05/26 02:25:16;;;;;;;0.30;0.30;;;15.80;96.40;;;;;;5051894;28;20540;-67
2022/05/26 02:27:42;;;;;;;2.83;0.70;;;15.80;96.40;;;;;;5052088;28;20181;-68
2022/05/26 02:30:10;;;;;;;2.20;0.60;;;15.80;96.50;;;;;;5052047;28;20184;-68
2022/05/26 02:32:38;;;;;;;0.50;0.30;;;15.70;96.40;;;;;;5051876;28;20279;-68
2022/05/26 02:35:15;;;;;;;1.50;0.40;;;15.70;96.30;;;;;;5051298;28;20186;-68
2022/05/26 02:37:43;;;;;;;0.75;0.60;;;15.70;96.00;;;;;;5051912;28;20181;-68
2022/05/26 02:40:10;;;;;;;3.10;0.63;;;15.70;96.00;;;;;;5046724;28;20537;-68
2022/05/26 02:42:47;;;;;;;1.45;0.52;;;15.70;95.40;;;;;;5051972;28;20690;-68
2022/05/26 02:45:13;;;;;;;1.60;0.50;;;15.70;95.20;;;;;;5051666;28;20220;-68
2022/05/26 02:47:47;;;;;;;1.05;0.50;;;15.70;95.20;;;;;;5051570;28;20223;-68
2022/05/26 02:50:32;;;;;;;0.50;0.50;;;15.70;95.30;;;;;;5051409;28;20295;-68
2022/05/26 02:52:57;;;;;;;0.60;0.60;;;15.70;95.10;;;;;;5051154;28;20176;-67
2022/05/26 02:55:42;;;;;;;2.08;0.70;;;15.70;95.00;;;;;;5051024;28;20174;-68
2022/05/26 02:58:22;;;;;;;1.48;0.80;;;15.70;95.10;;;;;;5051000;28;20280;-68
2022/05/26 03:00:53;;;;;;;1.48;0.60;;;15.70;95.10;;;;;;5050497;28;20181;-68
2022/05/26 03:03:37;;;;;;;1.25;0.45;;;15.60;95.20;;;;;;5040551;28;20684;-68
2022/05/26 03:06:10;;;;;;;0.50;0.50;;;15.70;95.20;;;;;;5051110;28;20184;-68
2022/05/26 03:08:39;;;;;;;0.50;0.50;;;15.60;95.30;;;;;;5051054;28;20206;-68
2022/05/26 03:11:20;;;;;;;2.10;0.85;;;15.60;95.40;;;;;;5050645;28;20186;-68
2022/05/26 03:13:46;;;;;;;0.60;0.60;;;15.60;95.50;;;;;;5051234;28;20188;-68
2022/05/26 03:16:12;;;;;;;0.80;0.60;;;15.60;95.70;;;;;;5050931;28;20516;-69
2022/05/26 03:18:38;;;;;;;1.08;0.60;;;15.60;95.90;;;;;;5051092;28;20232;-69
2022/05/26 03:21:05;;;;;;;1.45;0.65;;;15.50;95.80;;;;;;5050651;28;20177;-69
2022/05/26 03:23:31;;;;;;;2.63;0.80;;;15.50;96.00;;;;;;5051107;28;20205;-69
2022/05/26 03:25:58;;;;;;;0.98;0.60;;;15.50;96.20;;;;;;5051225;28;20535;-68
2022/05/26 03:28:25;;;;;;;2.25;0.85;;;15.40;96.30;;;;;;5050564;28;20184;-68
2022/05/26 03:30:51;;;;;;;1.27;0.55;;;15.40;96.50;;;;;;5050768;28;20181;-69
2022/05/26 03:33:17;;;;;;;2.38;1.23;;;15.30;96.60;;;;;;5051205;28;20177;-68
2022/05/26 03:41:20;;;;;;;1.20;0.65;;;15.20;97.10;;;;;;5050271;28;20207;-68
2022/05/26 03:43:51;;;;;;;1.25;0.65;;;15.20;97.30;;;;;;5051154;28;20738;-67
2022/05/26 03:46:16;;;;;;;0.73;0.60;;;15.10;97.40;;;;;;5050065;28;20542;-68
2022/05/26 03:48:42;;;;;;;0.52;0.52;;;15.10;97.40;;;;;;5050974;28;20662;-68
2022/05/26 03:51:08;;;;;;;1.38;0.47;;;15.10;97.40;;;;;;5051121;28;20185;-68
2022/05/26 03:53:34;;;;;;;1.75;0.60;;;15.00;97.50;;;;;;5050418;28;20185;-68
2022/05/26 03:56:01;;;;;;;2.83;0.65;;;15.00;97.70;;;;;;5050931;28;20209;-67
2022/05/26 03:58:27;;;;;;;1.65;0.65;;;15.00;98.00;;;;;;5050857;28;20181;-67
2022/05/26 04:00:53;;;;;;;1.73;0.45;;;15.00;98.00;;;;;;5050280;28;20264;-68
2022/05/26 04:03:19;;;;;;;0.88;0.57;;;14.90;98.20;;;;;;5052273;28;20177;-68
2022/05/26 04:05:45;;;;;;;0.52;0.40;;;14.90;98.30;;;;;;5057096;28;20177;-67
2022/05/26 04:08:11;;;;;;;2.08;1.45;;;14.90;98.40;;;;;;5050128;28;20260;-67
2022/05/26 04:10:37;;;;;;;0.75;0.60;;;14.90;98.50;;;;;;5054290;28;20272;-67
2022/05/26 04:13:03;;;;;;;1.10;0.63;;;14.90;98.50;;;;;;5054420;28;20185;-67
2022/05/26 04:15:29;;;;;;;0.65;0.55;;;14.90;98.70;;;;;;5054333;28;20331;-67
2022/05/26 04:17:55;;;;;;;0.60;0.60;;;14.90;98.70;;;;;;5054334;28;20221;-66
2022/05/26 04:20:23;;;;;;;1.85;0.80;;;14.90;98.90;;;;;;5054249;28;20235;-68
2022/05/26 04:22:49;;;;;;;1.23;0.60;;;15.00;98.90;;;;;;5052569;28;20264;-68
2022/05/26 04:25:17;;;;;;;2.80;0.50;;;15.10;98.80;;;;;;5054112;28;20275;-67
2022/05/26 04:27:43;;;;;;;0.75;0.60;;;15.30;98.70;;;;;;5054370;28;20678;-68
2022/05/26 04:30:10;;;;;;;1.05;0.77;;;15.50;98.40;;;;;;5053659;28;20185;-68
2022/05/26 04:32:36;;;;;;;0.80;0.50;;;15.70;98.00;;;;;;5049117;28;20181;-67
2022/05/26 04:35:03;;;;;;;1.90;0.68;;;15.70;97.70;;;;;;5054342;28;20185;-67
2022/05/26 04:37:29;;;;;;;1.42;0.70;;;15.70;97.70;;;;;;5054019;28;20200;-68
2022/05/26 04:39:56;;;;;;;0.65;0.60;;;15.70;97.80;;;;;;5053722;28;20185;-67
2022/05/26 04:42:23;;;;;;;3.03;0.68;;;15.70;97.80;;;;;;5053845;28;20178;-67
2022/05/26 04:44:49;;;;;;;1.65;0.88;;;15.70;98.10;;;;;;5054144;28;20210;-68
2022/05/26 04:47:17;;;;;;;1.50;0.52;;;15.80;97.90;;;;;;5053370;28;20232;-68
2022/05/26 04:49:43;;;;;;;0.93;0.70;;;15.80;98.10;;;;;;5053744;28;20196;-68
2022/05/26 04:52:11;;;;;;;3.13;0.60;;;15.90;98.10;;;;;;5054125;28;20256;-67
2022/05/26 04:54:37;;;;;;;0.93;0.55;;;16.00;98.10;;;;;;5053759;28;20193;-67
2022/05/26 04:57:05;;;;;;;1.13;0.57;;;16.20;98.00;;;;;;5053457;28;20182;-67
2022/05/26 04:59:31;;;;;;;1.50;0.50;;;16.50;97.60;;;;;;5053848;28;20192;-67
2022/05/26 05:01:57;;;;;;;3.47;0.55;;;16.80;97.10;;;;;;5053304;28;20675;-67
2022/05/26 05:04:24;;;;;;;1.52;1.00;;;17.20;96.70;;;;;;5053516;28;20209;-67
2022/05/26 05:06:50;;;;;;;1.27;0.70;;;17.50;96.00;;;;;;5053565;28;20185;-67
2022/05/26 05:09:16;;;;;;;1.13;0.60;;;17.60;95.60;;;;;;5053626;28;20186;-67
2022/05/26 05:11:41;;;;;;;0.60;0.60;;;17.70;95.60;;;;;;5053716;28;20211;-68
2022/05/26 05:14:07;;;;;;;0.82;0.63;;;18.00;95.10;;;;;;5052576;28;20178;-67
2022/05/26 05:16:42;;;;;;;1.02;0.60;;;18.30;94.60;;;;;;5053035;28;20223;-67
2022/05/26 05:19:08;;;;;;;0.82;0.70;;;18.60;93.70;;;;;;5053280;28;20200;-67
2022/05/26 05:21:38;;;;;;;1.70;0.60;;;18.50;93.10;;;;;;5053043;28;20585;-67
2022/05/26 05:24:15;;;;;;;1.00;0.70;;;18.20;93.10;;;;;;5053111;28;20216;-67
2022/05/26 05:26:45;;;;;;;1.65;0.52;;;17.90;93.70;;;;;;5053391;28;20195;-68
2022/05/26 05:29:14;;;;;;;1.05;0.63;;;17.70;94.10;;;;;;5052077;28;20182;-68
2022/05/26 05:31:45;;;;;;;1.13;0.70;;;17.50;94.60;;;;;;5052601;28;20213;-68
2022/05/26 05:34:18;;;;;;;0.98;0.60;;;17.40;94.90;;;;;;5052903;28;20199;-68
2022/05/26 05:36:45;;;;;;;1.40;0.50;;;17.30;95.20;;;;;;5052652;28;20231;-68
2022/05/26 05:39:11;;;;;;;1.27;0.80;;;17.30;95.20;;;;;;5053244;28;20182;-67
2022/05/26 05:41:37;;;;;;;1.98;0.70;;;17.20;95.40;;;;;;5052696;28;20189;-68
2022/05/26 05:44:03;;;;;;;2.30;0.85;;;17.20;95.40;;;;;;5053061;28;20728;-68
2022/05/26 05:46:53;;;;;;;0.95;0.68;;;17.20;95.40;;;;;;5052695;28;20185;-68
2022/05/26 05:49:20;;;;;;;2.25;0.80;;;17.30;95.70;;;;;;5052881;28;20179;-67
2022/05/26 05:51:45;;;;;;;1.58;0.60;;;17.20;95.20;;;;;;5052960;28;20177;-65
2022/05/26 05:54:11;;;;;;;1.33;0.65;;;17.10;95.10;;;;;;5052930;28;20709;-68
2022/05/26 05:56:37;;;;;;;2.35;0.77;;;17.10;95.60;;;;;;5053209;28;20684;-68
2022/05/26 05:59:03;;;;;;;2.00;0.77;;;17.10;95.70;;;;;;5052197;28;20193;-68
2022/05/26 06:01:28;;;;;;;2.60;0.75;;;17.20;95.70;;;;;;5052697;28;20177;-68
2022/05/26 06:03:54;;;;;;;3.15;1.00;;;17.40;95.80;;;;;;5051760;28;20212;-68
2022/05/26 06:06:19;;;;;;;1.25;0.70;;;17.50;95.80;;;;;;5052500;28;20231;-68
2022/05/26 06:08:45;;;;;;;1.30;0.57;;;17.60;95.30;;;;;;5052341;28;20255;-68
2022/05/26 06:11:10;;;;;;;0.95;0.88;;;17.80;95.00;;;;;;5052120;28;20268;-67
2022/05/26 06:13:36;;;;;;;1.50;0.60;;;17.90;94.50;;;;;;5051790;28;20182;-68
2022/05/26 06:16:02;;;;;;;1.67;0.55;;;18.00;94.40;;;;;;5052301;28;20539;-68
2022/05/26 06:18:28;;;;;;;0.63;0.57;;;18.10;93.80;;;;;;5051693;28;20221;-68
2022/05/26 06:21:04;;;;;;;3.20;0.57;;;18.10;93.60;;;;;;5051380;28;20185;-68
2022/05/26 06:23:30;;;;;;;1.67;1.10;;;18.00;93.70;;;;;;5049742;28;20205;-68
2022/05/26 06:25:56;;;;;;;2.47;0.60;;;18.00;93.70;;;;;;5052394;28;20280;-67
2022/05/26 06:31:07;;;;;;;2.63;0.68;;;17.90;93.90;;;;;;5052527;28;20240;-67
2022/05/26 06:39:02;;;;;;;1.05;0.80;;;18.00;94.00;;;;;;5052251;28;20230;-68
2022/05/26 06:44:12;;;;;;;0.82;0.75;;;17.70;94.40;;;;;;5046533;28;20246;-69
2022/05/26 06:46:37;;;;;;;2.63;0.77;;;17.70;94.70;;;;;;5056705;28;20178;-68
2022/05/26 06:49:03;;;;;;;0.47;0.47;;;17.70;94.80;;;;;;5051692;28;20212;-67
2022/05/26 06:51:30;;;;;;;1.00;0.70;;;17.70;94.80;;;;;;5051694;28;20534;-65
2022/05/26 06:53:56;;;;;;;2.22;1.00;;;17.60;94.80;;;;;;5051622;28;20185;-63
2022/05/26 06:56:22;;;;;;;67.13;9.35;;;17.60;95.10;;;;;;5051889;28;20184;-61
2022/05/26 06:58:48;;;;;;;13.70;2.60;;;17.60;95.40;;;;;;5051815;28;20216;-67
2022/05/26 07:01:14;;;;;;;40.90;4.88;;;17.60;95.20;;;;;;5050913;28;20234;-65
2022/05/26 07:03:41;;;;;;;98.18;11.07;;;17.60;95.40;;;;;;5050902;28;20786;-65
2022/05/26 07:06:17;;;;;;;48.13;7.85;;;17.50;95.40;;;;;;5051931;28;20197;-70
2022/05/26 07:08:45;;;;;;;79.90;9.95;;;17.50;95.40;;;;;;5051056;28;20184;-66
2022/05/26 07:11:10;;;;;;;90.78;11.73;;;17.50;95.60;;;;;;5051692;28;20192;-67
2022/05/26 07:13:36;;;;;;;61.42;8.55;;;17.50;95.90;;;;;;5051312;28;20268;-65
2022/05/26 07:16:01;;;;;;;39.28;3.50;;;17.50;95.80;;;;;;5051443;28;20174;-68
2022/05/26 07:18:27;;;;;;;10.98;1.90;;;17.60;95.80;;;;;;5040841;28;20684;-66
2022/05/26 07:20:52;;;;;;;6.10;1.80;;;17.50;95.50;;;;;;5049722;28;20702;-69
2022/05/26 07:23:18;;;;;;;7.45;1.80;;;17.50;95.80;;;;;;5049770;28;20183;-69
2022/05/26 07:25:44;;;;;;;13.50;1.70;;;17.40;95.90;;;;;;5051239;28;20197;-63
2022/05/26 07:28:13;;;;;;;5.63;1.25;;;17.40;96.10;;;;;;5050284;28;20230;-65
2022/05/26 07:30:40;;;;;;;16.55;2.35;;;17.40;95.80;;;;;;5051582;28;20185;-69
2022/05/26 07:33:05;;;;;;;7.18;1.80;;;17.30;96.00;;;;;;5051636;28;20181;-66
2022/05/26 07:35:31;;;;;;;10.27;1.80;;;17.30;96.20;;;;;;5051595;28;20189;-65
2022/05/26 07:43:27;;;;;;;3.25;0.95;;;17.70;96.20;;;;;;5051600;28;20227;-69
2022/05/26 07:45:53;;;;;;;2.67;1.10;;;17.80;95.60;;;;;;5051584;28;20587;-70
2022/05/26 07:48:20;;;;;;;2.47;1.00;;;17.80;95.70;;;;;;5051309;28;20189;-67
2022/05/26 07:50:45;;;;;;;2.97;0.80;;;17.90;95.50;;;;;;5063086;28;20188;-64
2022/05/26 07:53:11;;;;;;;0.70;0.70;;;18.10;95.60;;;;;;5051916;28;20186;-66
2022/05/26 07:55:42;;;;;;;1.02;0.80;;;18.20;94.70;;;;;;5051766;28;20648;-67
2022/05/26 07:58:11;;;;;;;1.85;0.60;;;18.20;94.60;;;;;;5051265;28;20623;-62
2022/05/26 08:00:37;;;;;;;1.50;0.80;;;18.30;94.80;;;;;;5051578;28;20173;-68
2022/05/26 08:03:03;;;;;;;4.25;1.10;;;18.30;94.50;;;;;;5051478;28;20192;-62
2022/05/26 08:05:28;;;;;;;1.45;0.90;;;18.30;94.40;;;;;;5051524;28;20212;-67
2022/05/26 08:07:54;;;;;;;2.58;1.00;;;18.20;94.30;;;;;;5051457;28;20260;-68
2022/05/26 08:10:20;;;;;;;2.47;0.73;;;18.10;94.20;;;;;;5051503;28;20292;-67
2022/05/26 08:12:46;;;;;;;3.05;0.82;;;18.00;94.20;;;;;;5060220;28;20220;-65
2022/05/26 08:15:12;;;;;;;1.10;1.00;;;18.00;94.40;;;;;;5054797;28;20192;-67
2022/05/26 08:17:38;;;;;;;3.85;1.08;;;18.00;94.90;;;;;;5054251;28;20590;-64
2022/05/26 08:20:05;;;;;;;1.33;0.90;;;18.10;95.10;;;;;;5071382;28;20632;-69
2022/05/26 08:22:30;;;;;;;3.00;0.90;;;18.20;95.10;;;;;;5044806;28;20693;-64
2022/05/26 08:24:57;;;;;;;1.83;0.93;;;18.30;95.70;;;;;;5050852;28;20304;-71
2022/05/26 08:27:24;;;;;;;2.85;1.00;;;18.40;95.10;;;;;;5050964;28;20201;-74
2022/05/26 08:29:51;;;;;;;1.42;0.88;;;18.40;95.00;;;;;;5050827;28;20584;-72
2022/05/26 08:32:18;;;;;;;8.07;4.85;;;18.50;94.70;;;;;;5051182;28;20169;-71
2022/05/26 08:34:44;;;;;;;1.75;1.33;;;18.50;94.70;;;;;;5051152;28;20242;-71
2022/05/26 08:37:18;;;;;;;14.45;6.55;;;18.50;94.50;;;;;;5050548;28;20169;-73
2022/05/26 08:39:44;;;;;;;5.20;1.20;;;18.80;95.00;;;;;;5050654;28;20184;-72
2022/05/26 08:42:20;;;;;;;2.10;1.50;;;18.90;94.40;;;;;;5049590;28;20412;-73
2022/05/26 08:44:47;;;;;;;1.70;0.77;;;18.90;94.50;;;;;;5049678;28;20694;-71
2022/05/26 08:47:28;;;;;;;2.78;1.00;;;19.00;94.60;;;;;;5050861;28;20177;-72
2022/05/26 08:50:07;;;;;;;0.93;0.90;;;19.10;94.80;;;;;;5051482;28;20204;-70
2022/05/26 08:52:37;;;;;;;1.38;0.65;;;19.00;93.60;;;;;;5056792;28;20704;-70
2022/05/26 08:55:06;;;;;;;1.67;1.10;;;19.00;94.10;;;;;;5034734;28;20212;-69
2022/05/26 08:57:43;;;;;;;3.88;1.33;;;18.90;94.00;;;;;;5048104;28;20185;-69
2022/05/26 09:00:15;;;;;;;3.42;1.00;;;18.90;94.10;;;;;;5054456;28;20188;-68
2022/05/26 09:02:41;;;;;;;2.03;0.90;;;18.90;94.10;;;;;;5054230;28;20181;-69
2022/05/26 09:05:15;;;;;;;1.33;1.10;;;19.10;94.40;;;;;;5054047;28;20229;-70
2022/05/26 09:13:39;;;;;;;3.65;1.13;;;19.80;93.60;;;;;;5040326;28;20191;-70
2022/05/26 09:16:08;;;;;;;2.08;0.90;;;20.10;93.40;;;;;;5053878;28;20238;-70
2022/05/26 09:18:34;;;;;;;6.35;1.52;;;20.30;93.00;;;;;;5053590;28;20638;-70
2022/05/26 09:21:21;;;;;;;1.88;1.00;;;20.50;92.60;;;;;;5051560;28;20218;-70
2022/05/26 09:23:47;;;;;;;4.30;0.95;;;20.50;92.00;;;;;;5039984;28;20608;-70
2022/05/26 09:26:17;;;;;;;4.97;1.17;;;20.60;92.20;;;;;;5052871;28;20178;-70
2022/05/26 09:28:48;;;;;;;1.70;1.30;;;20.50;91.60;;;;;;5054017;28;20185;-70
2022/05/26 09:31:21;;;;;;;2.92;1.10;;;20.50;91.60;;;;;;5053647;28;20660;-71
2022/05/26 09:34:15;;;;;;;4.65;1.52;;;20.60;91.80;;;;;;5053648;28;20268;-68
2022/05/26 09:37:00;;;;;;;2.28;0.93;;;20.60;91.40;;;;;;5053745;28;20181;-69
2022/05/26 09:39:46;;;;;;;2.45;1.30;;;20.60;91.40;;;;;;5053954;28;20261;-70
2022/05/26 09:42:14;;;;;;;2.00;1.00;;;20.70;91.50;;;;;;5053200;28;20272;-70
2022/05/26 09:45:00;;;;;;;0.85;0.85;;;20.90;91.70;;;;;;5053403;28;20304;-70
2022/05/26 09:47:39;;;;;;;3.92;1.33;;;20.90;91.40;;;;;;5053472;28;20184;-70
2022/05/26 09:50:08;;;;;;;2.88;1.20;;;21.00;91.00;;;;;;5053645;28;20196;-70
2022/05/26 09:52:45;;;;;;;1.40;1.30;;;21.10;91.00;;;;;;5053335;28;20190;-70
2022/05/26 09:55:21;;;;;;;2.58;1.05;;;21.10;90.60;;;;;;5052969;28;20189;-69
2022/05/26 09:57:47;;;;;;;0.90;0.90;;;21.20;91.20;;;;;;5052836;28;20187;-71
2022/05/26 10:00:18;;;;;;;2.35;1.08;;;21.20;90.80;;;;;;5051932;28;20767;-71
2022/05/26 10:02:46;;;;;;;3.42;1.48;;;21.10;90.80;;;;;;5053001;28;20174;-69
2022/05/26 10:05:23;;;;;;;3.78;1.23;;;21.00;90.20;;;;;;5052745;28;20221;-72
2022/05/26 10:07:58;;;;;;;2.65;1.02;;;21.00;90.90;;;;;;5057259;28;20173;-69
2022/05/26 10:10:31;;;;;;;2.83;0.90;;;21.10;90.80;;;;;;5053190;28;20204;-70
2022/05/26 10:13:38;;;;;;;3.88;0.95;;;21.10;90.60;;;;;;5052638;28;20732;-72
2022/05/26 10:16:29;;;;;;;2.90;1.00;;;21.00;90.60;;;;;;5068487;28;20203;-73
2022/05/26 10:19:27;;;;;;;2.40;0.90;;;20.90;90.00;;;;;;5052380;28;20252;-68
2022/05/26 10:22:19;;;;;;;1.42;0.90;;;21.00;90.60;;;;;;5023755;28;20196;-70
2022/05/26 10:25:02;;;;;;;6.22;1.10;;;20.80;90.40;;;;;;5052416;28;20216;-69
2022/05/26 10:27:39;;;;;;;1.80;0.90;;;20.80;90.70;;;;;;5052790;28;20177;-70
2022/05/26 10:30:33;;;;;;;2.15;1.00;;;20.80;90.90;;;;;;5052607;28;20310;-69
2022/05/26 10:33:11;;;;;;;1.92;1.30;;;20.80;90.60;;;;;;5046729;28;20182;-69
2022/05/26 10:36:14;;;;;;;3.53;1.88;;;20.90;90.50;;;;;;5052384;28;20208;-70
2022/05/26 10:39:04;;;;;;;5.35;1.35;;;20.80;90.10;;;;;;5052463;28;20216;-70
2022/05/26 10:41:33;;;;;;;3.70;1.60;;;20.80;90.30;;;;;;5051773;28;20228;-69
2022/05/26 10:44:08;;;;;;;1.25;1.15;;;20.70;90.70;;;;;;5052520;28;20201;-68
2022/05/26 10:46:38;;;;;;;2.00;1.10;;;20.60;90.20;;;;;;5051807;28;20185;-69
2022/05/26 10:49:34;;;;;;;1.58;1.27;;;20.50;90.30;;;;;;5052192;28;20193;-70
2022/05/26 10:52:12;;;;;;;3.22;1.30;;;20.30;90.90;;;;;;5052307;28;20665;-69
2022/05/26 10:55:05;;;;;;;2.40;1.00;;;20.10;91.00;;;;;;5051979;28;20189;-70
2022/05/26 10:57:42;;;;;;;1.05;0.93;;;20.30;91.60;;;;;;5052591;28;20174;-69
2022/05/26 11:00:16;;;;;;;0.77;0.77;;;20.60;91.30;;;;;;5052786;28;20281;-68
2022/05/26 11:02:54;;;;;;;3.97;1.10;;;20.70;91.00;;;;;;5052260;28;20636;-69
2022/05/26 11:06:04;;;;;;;1.50;1.10;;;20.90;91.30;;;;;;5051671;28;20213;-68
2022/05/26 11:08:48;;;;;;;1.42;1.08;;;20.80;90.20;;;;;;5052108;28;20259;-68
2022/05/26 11:11:19;;;;;;;3.38;1.33;;;20.70;90.50;;;;;;5052035;28;20217;-68
2022/05/26 11:17:21;;;;;;;1.58;1.02;;;20.80;91.10;;;;;;5051308;28;20240;-70
2022/05/26 11:19:49;;;;;;;1.20;1.00;;;20.60;90.80;;;;;;5052150;28;20242;-72
2022/05/26 11:22:16;;;;;;;1.85;1.23;;;20.80;90.50;;;;;;5045525;28;20185;-72
2022/05/26 11:24:52;;;;;;;50.55;29.95;;;21.10;90.80;;;;;;5050625;28;20217;-73
2022/05/26 11:28:09;;;;;;;3.33;1.50;;;21.40;90.90;;;;;;5050362;28;20180;-60
2022/05/26 11:37:15;;;;;;;52.70;20.40;;;21.50;89.80;;;;;;5062894;28;20195;-66
2022/05/26 11:39:43;;;;;;;2.53;1.40;;;21.50;89.50;;;;;;5045015;28;20252;-69
2022/05/26 11:42:32;;;;;;;1.77;1.15;;;21.70;88.00;;;;;;5051716;28;20177;-70
2022/05/26 11:45:17;;;;;;;1.52;0.90;;;21.60;88.00;;;;;;5050695;28;20253;-70
2022/05/26 11:47:54;;;;;;;1.15;1.10;;;21.90;88.20;;;;;;5051558;28;20200;-70
2022/05/26 11:50:22;;;;;;;1.85;0.95;;;22.10;87.80;;;;;;5051348;28;20398;-70
2022/05/26 11:52:53;;;;;;;0.70;0.70;;;22.20;87.30;;;;;;5051582;28;20629;-70
2022/05/26 11:55:47;;;;;;;1.73;0.90;;;22.50;85.70;;;;;;5051266;28;20180;-70
2022/05/26 11:58:16;;;;;;;1.58;0.80;;;22.50;85.50;;;;;;5041996;28;20547;-69
2022/05/26 12:00:44;;;;;;;3.08;1.23;;;22.50;85.70;;;;;;5051334;28;20205;-70
2022/05/26 12:03:24;;;;;;;1.20;1.10;;;22.50;82.90;;;;;;5051254;28;20230;-72
2022/05/26 12:06:13;;;;;;;1.60;0.90;;;22.60;84.30;;;;;;5051530;28;20185;-72
2022/05/26 12:08:53;;;;;;;2.35;1.20;;;22.70;83.90;;;;;;5051514;28;20181;-72
2022/05/26 12:11:22;;;;;;;1.00;0.70;;;22.60;83.30;;;;;;5051364;28;20247;-73
2022/05/26 12:13:59;;;;;;;0.90;0.90;;;22.80;83.60;;;;;;5051534;28;20542;-73
2022/05/26 12:16:27;;;;;;;2.17;0.82;;;23.20;84.30;;;;;;5051316;28;20239;-72
2022/05/26 12:19:08;;;;;;;3.40;1.80;;;23.90;81.90;;;;;;5050701;28;20684;-72
2022/05/26 12:21:47;;;;;;;2.95;1.40;;;24.00;78.20;;;;;;5043390;28;20197;-72
2022/05/26 12:24:31;;;;;;;2.67;0.60;;;23.50;78.40;;;;;;5043697;28;20291;-72
2022/05/26 12:26:57;;;;;;;1.75;0.68;;;23.10;78.70;;;;;;5060548;28;20530;-69
2022/05/26 12:29:50;;;;;;;1.70;0.63;;;22.50;79.80;;;;;;5055415;28;20599;-71
2022/05/26 12:32:21;;;;;;;2.53;1.10;;;22.10;81.80;;;;;;5054966;28;20173;-71
2022/05/26 12:35:13;;;;;;;1.58;0.80;;;21.60;82.40;;;;;;5055061;28;20719;-71
2022/05/26 12:38:16;;;;;;;0.68;0.68;;;21.00;83.50;;;;;;5033091;28;20222;-71
2022/05/26 12:40:42;;;;;;;1.65;1.40;;;20.80;85.10;;;;;;5019197;28;20586;-71
2022/05/26 12:43:52;;;;;;;1.23;0.70;;;20.80;86.30;;;;;;5048568;28;20172;-72
2022/05/26 12:46:37;;;;;;;1.48;1.30;;;20.90;86.70;;;;;;5046440;28;20201;-71
2022/05/26 12:49:22;;;;;;;3.75;1.05;;;21.00;87.00;;;;;;5054248;28;20173;-71
2022/05/26 12:52:08;;;;;;;1.75;1.10;;;21.20;86.70;;;;;;5053892;28;20201;-73
2022/05/26 12:54:42;;;;;;;1.88;1.45;;;21.30;85.50;;;;;;5045058;28;20276;-72
2022/05/26 12:57:11;;;;;;;3.95;1.27;;;21.40;85.40;;;;;;5054492;28;20177;-73
2022/05/26 12:59:36;;;;;;;1.48;1.15;;;21.40;84.80;;;;;;5054473;28;20231;-74
2022/05/26 13:02:03;;;;;;;1.45;1.20;;;21.50;84.10;;;;;;5053849;28;20527;-72
2022/05/26 13:04:34;;;;;;;1.88;1.30;;;21.70;83.60;;;;;;5053691;28;20217;-73
2022/05/26 13:07:05;;;;;;;2.05;0.80;;;21.90;82.70;;;;;;5054227;28;20197;-73
2022/05/26 13:09:44;;;;;;;1.60;1.00;;;22.20;81.30;;;;;;5053379;28;20715;-73
2022/05/26 13:12:17;;;;;;;1.17;0.70;;;22.40;80.90;;;;;;5052258;28;20315;-74
2022/05/26 13:14:54;;;;;;;1.50;0.95;;;22.40;78.90;;;;;;5053792;28;20181;-73
2022/05/26 13:17:23;;;;;;;0.50;0.50;;;22.30;78.80;;;;;;5053615;28;20314;-73
2022/05/26 13:19:50;;;;;;;0.68;0.68;;;22.40;77.10;;;;;;5053499;28;20236;-66
2022/05/26 13:22:30;;;;;;;0.90;0.80;;;22.50;77.70;;;;;;5050611;28;20189;-65
2022/05/26 13:25:22;;;;;;;3.40;0.90;;;22.60;76.50;;;;;;5053392;28;20374;-64
2022/05/26 13:27:53;;;;;;;1.33;0.70;;;22.40;77.00;;;;;;5051873;28;20181;-66
2022/05/26 13:33:14;;;;;;;2.55;0.90;;;21.90;78.70;;;;;;5036443;28;20193;-70
2022/05/26 13:35:43;;;;;;;1.58;0.80;;;21.90;80.30;;;;;;5053245;28;20178;-69
2022/05/26 13:38:28;;;;;;;0.70;0.70;;;22.10;80.30;;;;;;5052810;28;20184;-69
2022/05/26 13:40:55;;;;;;;1.63;0.80;;;22.20;81.80;;;;;;5052675;28;20185;-69
2022/05/26 13:43:20;;;;;;;1.13;1.00;;;22.20;81.30;;;;;;5053757;28;20221;-69
2022/05/26 13:45:47;;;;;;;1.52;0.95;;;22.20;82.30;;;;;;5053685;28;20248;-69
2022/05/26 13:48:35;;;;;;;0.60;0.47;;;22.40;81.80;;;;;;5053740;28;20185;-69
2022/05/26 13:51:15;;;;;;;0.88;0.73;;;22.60;80.50;;;;;;5053688;28;20294;-69
2022/05/26 13:53:47;;;;;;;1.92;0.77;;;22.80;80.50;;;;;;5053719;28;20188;-69